createdAt,value
2023-05-05T00:01:13.628Z,26.64
2023-05-05T00:02:13.496Z,26.65
2023-05-05T00:03:15.136Z,26.65
2023-05-05T00:04:13.415Z,26.65
2023-05-05T00:05:14.099Z,26.64
2023-05-05T00:06:15.116Z,26.67
2023-05-05T00:07:14.654Z,26.65
2023-05-05T00:08:13.725Z,26.67
2023-05-05T00:09:14.588Z,26.67
2023-05-05T00:10:13.690Z,26.67
2023-05-05T00:11:13.678Z,26.67
2023-05-05T00:12:13.811Z,26.68
2023-05-05T00:13:14.686Z,26.65
2023-05-05T00:14:13.800Z,26.67
2023-05-05T00:15:13.934Z,26.67
2023-05-05T00:16:14.593Z,26.67
2023-05-05T00:17:14.689Z,26.65
2023-05-05T00:18:14.037Z,26.64
2023-05-05T00:19:16.614Z,26.64
2023-05-05T00:20:14.357Z,26.62
2023-05-05T00:21:14.258Z,26.61
2023-05-05T00:22:16.209Z,26.59
2023-05-05T00:23:14.355Z,26.59
2023-05-05T00:24:15.087Z,26.61
2023-05-05T00:25:14.449Z,26.56
2023-05-05T00:26:16.142Z,26.55
2023-05-05T00:27:14.548Z,26.55
2023-05-05T00:28:14.629Z,26.54
2023-05-05T00:29:14.617Z,26.54
2023-05-05T00:30:14.666Z,26.52
2023-05-05T00:31:15.640Z,26.51
2023-05-05T00:32:14.835Z,26.48
2023-05-05T00:33:14.834Z,26.51
2023-05-05T00:34:14.871Z,26.48
2023-05-05T00:35:15.617Z,26.47
2023-05-05T00:36:15.005Z,26.48
2023-05-05T00:37:15.057Z,26.50
2023-05-05T00:38:15.069Z,26.44
2023-05-05T00:39:15.120Z,26.44
2023-05-05T00:40:17.121Z,26.45
2023-05-05T00:41:15.282Z,26.45
2023-05-05T00:42:15.259Z,26.44
2023-05-05T00:43:18.128Z,26.45
2023-05-05T00:44:15.302Z,26.44
2023-05-05T00:45:16.112Z,26.45
2023-05-05T00:46:15.276Z,26.44
2023-05-05T00:47:15.236Z,26.47
2023-05-05T00:48:15.238Z,26.47
2023-05-05T00:49:17.193Z,26.48
2023-05-05T00:50:16.118Z,26.50
2023-05-05T00:51:16.208Z,26.51
2023-05-05T00:52:15.244Z,26.54
2023-05-05T00:53:15.166Z,26.56
2023-05-05T00:54:15.242Z,26.56
2023-05-05T00:55:15.179Z,26.56
2023-05-05T00:56:15.763Z,26.61
2023-05-05T00:57:16.125Z,26.58
2023-05-05T00:58:16.104Z,26.61
2023-05-05T00:59:15.224Z,26.61
2023-05-05T01:00:16.260Z,26.64
2023-05-05T01:01:16.183Z,26.59
2023-05-05T01:02:15.426Z,26.61
2023-05-05T01:03:16.196Z,26.62
2023-05-05T01:04:15.428Z,26.64
2023-05-05T01:05:15.471Z,26.62
2023-05-05T01:06:15.570Z,26.62
2023-05-05T01:07:15.622Z,26.65
2023-05-05T01:08:16.110Z,26.65
2023-05-05T01:09:15.633Z,26.67
2023-05-05T01:10:20.128Z,26.64
2023-05-05T01:11:18.808Z,26.64
2023-05-05T01:12:15.691Z,26.65
2023-05-05T01:13:15.606Z,26.67
2023-05-05T01:14:15.675Z,26.65
2023-05-05T01:15:15.553Z,26.64
2023-05-05T01:16:16.202Z,26.65
2023-05-05T01:17:15.573Z,26.67
2023-05-05T01:18:15.496Z,26.65
2023-05-05T01:19:15.487Z,26.67
2023-05-05T01:20:15.455Z,26.68
2023-05-05T01:21:15.466Z,26.67
2023-05-05T01:22:15.504Z,26.68
2023-05-05T01:23:16.108Z,26.68
2023-05-05T01:24:15.498Z,26.70
2023-05-05T01:25:15.498Z,26.68
2023-05-05T01:26:15.526Z,26.70
2023-05-05T01:27:15.564Z,26.70
2023-05-05T01:28:15.609Z,26.70
2023-05-05T01:29:15.649Z,26.71
2023-05-05T01:30:15.701Z,26.68
2023-05-05T01:31:15.758Z,26.67
2023-05-05T01:32:15.823Z,26.67
2023-05-05T01:33:15.811Z,26.70
2023-05-05T01:34:17.662Z,26.70
2023-05-05T01:35:15.918Z,26.70
2023-05-05T01:36:15.953Z,26.70
2023-05-05T01:37:15.960Z,26.70
2023-05-05T01:38:15.933Z,26.70
2023-05-05T01:39:15.891Z,26.68
2023-05-05T01:40:15.912Z,26.71
2023-05-05T01:41:16.636Z,26.70
2023-05-05T01:42:15.903Z,26.68
2023-05-05T01:43:15.826Z,26.68
2023-05-05T01:44:17.748Z,26.70
2023-05-05T01:45:18.736Z,26.68
2023-05-05T01:46:15.815Z,26.71
2023-05-05T01:47:15.768Z,26.70
2023-05-05T01:48:19.127Z,26.71
2023-05-05T01:49:16.660Z,26.70
2023-05-05T01:50:17.711Z,26.71
2023-05-05T01:51:16.619Z,26.72
2023-05-05T01:52:15.681Z,26.71
2023-05-05T01:53:15.684Z,26.67
2023-05-05T01:54:15.606Z,26.71
2023-05-05T01:55:16.124Z,26.72
2023-05-05T01:56:15.613Z,26.70
2023-05-05T01:57:16.153Z,26.72
2023-05-05T01:58:15.690Z,26.71
2023-05-05T01:59:16.138Z,26.72
2023-05-05T02:00:15.613Z,26.70
2023-05-05T02:01:16.669Z,26.70
2023-05-05T02:02:16.672Z,26.71
2023-05-05T02:03:15.945Z,26.71
2023-05-05T02:04:15.765Z,26.72
2023-05-05T02:05:15.791Z,26.70
2023-05-05T02:06:16.652Z,26.70
2023-05-05T02:07:15.867Z,26.70
2023-05-05T02:08:16.003Z,26.70
2023-05-05T02:09:16.648Z,26.72
2023-05-05T02:10:16.012Z,26.71
2023-05-05T02:11:16.652Z,26.71
2023-05-05T02:12:16.073Z,26.72
2023-05-05T02:13:16.315Z,26.72
2023-05-05T02:14:16.271Z,26.72
2023-05-05T02:15:21.162Z,26.71
2023-05-05T02:16:16.227Z,26.71
2023-05-05T02:17:18.160Z,26.71
2023-05-05T02:18:16.227Z,26.71
2023-05-05T02:19:16.223Z,26.68
2023-05-05T02:20:16.094Z,26.72
2023-05-05T02:21:16.135Z,26.71
2023-05-05T02:22:16.069Z,26.71
2023-05-05T02:23:16.174Z,26.72
2023-05-05T02:24:16.084Z,26.71
2023-05-05T02:25:16.644Z,26.71
2023-05-05T02:26:16.647Z,26.70
2023-05-05T02:27:15.999Z,26.68
2023-05-05T02:28:16.149Z,26.70
2023-05-05T02:29:15.917Z,26.71
2023-05-05T02:30:15.903Z,26.70
2023-05-05T02:31:15.895Z,26.71
2023-05-05T02:32:17.757Z,26.72
2023-05-05T02:33:15.812Z,26.68
2023-05-05T02:34:15.813Z,26.71
2023-05-05T02:35:16.666Z,26.71
2023-05-05T02:36:15.753Z,26.72
2023-05-05T02:37:15.722Z,26.74
2023-05-05T02:38:15.915Z,26.71
2023-05-05T02:39:17.752Z,26.70
2023-05-05T02:40:15.674Z,26.70
2023-05-05T02:41:16.732Z,26.72
2023-05-05T02:42:15.720Z,26.70
2023-05-05T02:43:15.903Z,26.70
2023-05-05T02:44:16.675Z,26.71
2023-05-05T02:45:17.851Z,26.70
2023-05-05T02:46:15.866Z,26.68
2023-05-05T02:47:16.651Z,26.65
2023-05-05T02:48:15.977Z,26.68
2023-05-05T02:49:15.978Z,26.68
2023-05-05T02:50:16.053Z,26.65
2023-05-05T02:51:16.077Z,26.68
2023-05-05T02:52:17.822Z,26.65
2023-05-05T02:53:16.128Z,26.62
2023-05-05T02:54:19.227Z,26.64
2023-05-05T02:55:16.154Z,26.65
2023-05-05T02:56:16.209Z,26.64
2023-05-05T02:57:18.749Z,26.62
2023-05-05T02:58:16.091Z,26.64
2023-05-05T02:59:16.778Z,26.61
2023-05-05T03:00:16.072Z,26.61
2023-05-05T03:01:16.754Z,26.62
2023-05-05T03:02:17.792Z,26.62
2023-05-05T03:03:16.390Z,26.61
2023-05-05T03:04:16.005Z,26.62
2023-05-05T03:05:17.937Z,26.62
2023-05-05T03:06:16.658Z,26.62
2023-05-05T03:07:16.694Z,26.59
2023-05-05T03:08:15.836Z,26.61
2023-05-05T03:09:16.652Z,26.61
2023-05-05T03:10:15.853Z,26.62
2023-05-05T03:11:15.824Z,26.59
2023-05-05T03:12:15.853Z,26.62
2023-05-05T03:13:15.940Z,26.62
2023-05-05T03:14:16.012Z,26.61
2023-05-05T03:15:16.039Z,26.59
2023-05-05T03:16:16.144Z,26.62
2023-05-05T03:17:16.035Z,26.59
2023-05-05T03:18:16.235Z,26.62
2023-05-05T03:19:16.699Z,26.61
2023-05-05T03:20:16.220Z,26.62
2023-05-05T03:21:16.188Z,26.61
2023-05-05T03:22:16.248Z,26.62
2023-05-05T03:23:16.958Z,26.58
2023-05-05T03:24:16.422Z,26.59
2023-05-05T03:25:16.315Z,26.59
2023-05-05T03:26:16.373Z,26.61
2023-05-05T03:27:21.208Z,26.59
2023-05-05T03:28:16.380Z,26.62
2023-05-05T03:29:17.178Z,26.59
2023-05-05T03:30:17.240Z,26.61
2023-05-05T03:31:17.246Z,26.61
2023-05-05T03:32:21.186Z,26.59
2023-05-05T03:33:16.208Z,26.61
2023-05-05T03:34:16.283Z,26.62
2023-05-05T03:35:16.186Z,26.61
2023-05-05T03:36:16.126Z,26.61
2023-05-05T03:37:16.723Z,26.61
2023-05-05T03:38:16.242Z,26.61
2023-05-05T03:39:16.662Z,26.61
2023-05-05T03:40:16.673Z,26.61
2023-05-05T03:41:16.056Z,26.58
2023-05-05T03:42:16.125Z,26.59
2023-05-05T03:43:16.190Z,26.56
2023-05-05T03:44:17.179Z,26.59
2023-05-05T03:45:16.223Z,26.59
2023-05-05T03:46:18.327Z,26.56
2023-05-05T03:47:18.203Z,26.59
2023-05-05T03:48:17.239Z,26.58
2023-05-05T03:49:17.174Z,26.58
2023-05-05T03:50:16.231Z,26.59
2023-05-05T03:51:16.218Z,26.58
2023-05-05T03:52:18.204Z,26.55
2023-05-05T03:53:16.251Z,26.56
2023-05-05T03:54:16.201Z,26.56
2023-05-05T03:55:16.119Z,26.55
2023-05-05T03:56:16.114Z,26.54
2023-05-05T03:57:16.076Z,26.54
2023-05-05T03:58:16.077Z,26.50
2023-05-05T03:59:18.689Z,26.50
2023-05-05T04:00:16.306Z,26.47
2023-05-05T04:01:16.349Z,26.50
2023-05-05T04:02:18.481Z,26.43
2023-05-05T04:03:16.756Z,26.41
2023-05-05T04:04:16.571Z,26.41
2023-05-05T04:05:16.511Z,26.40
2023-05-05T04:06:16.653Z,26.37
2023-05-05T04:07:16.552Z,26.35
2023-05-05T04:08:16.611Z,26.30
2023-05-05T04:09:16.638Z,26.30
2023-05-05T04:10:16.643Z,26.31
2023-05-05T04:11:16.600Z,26.30
2023-05-05T04:12:18.233Z,26.28
2023-05-05T04:13:16.848Z,26.28
2023-05-05T04:14:16.583Z,26.26
2023-05-05T04:15:16.631Z,26.24
2023-05-05T04:16:16.568Z,26.23
2023-05-05T04:17:16.489Z,26.20
2023-05-05T04:18:16.766Z,26.19
2023-05-05T04:19:16.453Z,26.19
2023-05-05T04:20:16.441Z,26.16
2023-05-05T04:21:16.429Z,26.13
2023-05-05T04:22:16.468Z,26.12
2023-05-05T04:23:16.715Z,26.13
2023-05-05T04:24:16.375Z,26.07
2023-05-05T04:25:16.367Z,26.04
2023-05-05T04:26:21.238Z,26.07
2023-05-05T04:27:17.230Z,26.07
2023-05-05T04:28:16.366Z,26.08
2023-05-05T04:29:16.398Z,26.08
2023-05-05T04:30:17.202Z,26.08
2023-05-05T04:31:16.329Z,26.10
2023-05-05T04:32:16.267Z,26.10
2023-05-05T04:33:16.242Z,26.13
2023-05-05T04:34:16.221Z,26.14
2023-05-05T04:35:16.226Z,26.16
2023-05-05T04:36:16.189Z,26.19
2023-05-05T04:37:16.256Z,26.16
2023-05-05T04:38:16.232Z,26.20
2023-05-05T04:39:16.153Z,26.19
2023-05-05T04:40:16.698Z,26.20
2023-05-05T04:41:16.157Z,26.21
2023-05-05T04:42:17.756Z,26.21
2023-05-05T04:43:16.397Z,26.21
2023-05-05T04:44:17.725Z,26.21
2023-05-05T04:45:16.197Z,26.23
2023-05-05T04:46:16.244Z,26.24
2023-05-05T04:47:16.246Z,26.26
2023-05-05T04:48:17.202Z,26.26
2023-05-05T04:49:17.199Z,26.27
2023-05-05T04:50:16.288Z,26.27
2023-05-05T04:51:16.303Z,26.30
2023-05-05T04:52:17.260Z,26.30
2023-05-05T04:53:16.309Z,26.30
2023-05-05T04:54:21.330Z,26.28
2023-05-05T04:55:16.289Z,26.20
2023-05-05T04:56:16.247Z,26.13
2023-05-05T04:57:17.201Z,26.13
2023-05-05T04:58:16.324Z,26.14
2023-05-05T04:59:16.180Z,26.16
2023-05-05T05:00:16.148Z,26.13
2023-05-05T05:01:16.726Z,26.16
2023-05-05T05:02:16.158Z,26.16
2023-05-05T05:03:16.266Z,26.17
2023-05-05T05:04:16.722Z,26.16
2023-05-05T05:05:16.094Z,26.16
2023-05-05T05:06:16.765Z,26.12
2023-05-05T05:07:16.192Z,26.13
2023-05-05T05:08:16.715Z,26.10
2023-05-05T05:09:16.112Z,26.10
2023-05-05T05:10:16.138Z,26.10
2023-05-05T05:11:16.153Z,26.12
2023-05-05T05:12:16.163Z,26.07
2023-05-05T05:13:17.338Z,26.07
2023-05-05T05:14:16.176Z,26.10
2023-05-05T05:15:16.221Z,26.10
2023-05-05T05:16:16.219Z,26.08
2023-05-05T05:17:16.149Z,26.07
2023-05-05T05:18:16.225Z,26.12
2023-05-05T05:19:16.242Z,26.08
2023-05-05T05:20:16.168Z,26.07
2023-05-05T05:21:16.237Z,26.07
2023-05-05T05:22:17.727Z,26.04
2023-05-05T05:23:16.210Z,26.04
2023-05-05T05:24:16.764Z,26.00
2023-05-05T05:25:16.708Z,26.03
2023-05-05T05:26:16.127Z,25.99
2023-05-05T05:27:16.208Z,25.95
2023-05-05T05:28:16.254Z,25.95
2023-05-05T05:29:16.217Z,25.93
2023-05-05T05:30:16.204Z,25.92
2023-05-05T05:31:16.204Z,25.90
2023-05-05T05:32:16.184Z,25.90
2023-05-05T05:33:18.421Z,25.61
2023-05-05T05:34:16.666Z,25.53
2023-05-05T05:35:16.281Z,25.34
2023-05-05T05:36:16.205Z,25.17
2023-05-05T05:37:19.902Z,24.93
2023-05-05T05:38:17.334Z,24.80
2023-05-05T05:39:16.222Z,24.69
2023-05-05T05:40:16.287Z,24.63
2023-05-05T05:41:16.221Z,24.60
2023-05-05T05:42:16.325Z,24.60
2023-05-05T05:43:17.263Z,24.59
2023-05-05T05:44:17.218Z,24.59
2023-05-05T05:45:18.315Z,24.49
2023-05-05T05:46:16.295Z,24.40
2023-05-05T05:47:17.280Z,24.40
2023-05-05T05:48:16.814Z,24.42
2023-05-05T05:49:19.244Z,24.43
2023-05-05T05:50:17.229Z,24.49
2023-05-05T05:51:16.242Z,24.48
2023-05-05T05:52:16.251Z,24.54
2023-05-05T05:53:16.291Z,24.55
2023-05-05T05:54:17.269Z,24.62
2023-05-05T05:55:16.295Z,24.66
2023-05-05T05:56:16.366Z,24.70
2023-05-05T05:57:16.254Z,24.72
2023-05-05T05:58:16.791Z,24.77
2023-05-05T05:59:16.321Z,24.82
2023-05-05T06:00:16.248Z,24.83
2023-05-05T06:01:17.385Z,24.87
2023-05-05T06:02:16.261Z,24.91
2023-05-05T06:03:16.466Z,24.93
2023-05-05T06:04:16.422Z,24.93
2023-05-05T06:05:16.233Z,25.00
2023-05-05T06:06:16.269Z,25.00
2023-05-05T06:07:16.222Z,25.02
2023-05-05T06:08:16.273Z,25.06
2023-05-05T06:09:16.194Z,25.07
2023-05-05T06:10:27.539Z,25.07
2023-05-05T06:11:17.203Z,25.10
2023-05-05T06:12:16.162Z,25.11
2023-05-05T06:13:19.596Z,25.11
2023-05-05T06:14:17.059Z,25.13
2023-05-05T06:15:16.247Z,25.15
2023-05-05T06:16:16.181Z,25.14
2023-05-05T06:17:16.145Z,25.15
2023-05-05T06:18:16.186Z,25.18
2023-05-05T06:19:16.278Z,25.21
2023-05-05T06:20:16.380Z,25.21
2023-05-05T06:21:16.163Z,25.18
2023-05-05T06:22:16.080Z,25.21
2023-05-05T06:23:16.123Z,25.21
2023-05-05T06:24:16.270Z,25.25
2023-05-05T06:25:16.089Z,25.24
2023-05-05T06:26:16.097Z,25.28
2023-05-05T06:27:16.060Z,25.28
2023-05-05T06:28:16.100Z,25.31
2023-05-05T06:29:16.165Z,25.34
2023-05-05T06:30:16.142Z,25.34
2023-05-05T06:31:16.168Z,25.35
2023-05-05T06:32:18.788Z,25.37
2023-05-05T06:33:16.512Z,25.42
2023-05-05T06:34:16.444Z,25.46
2023-05-05T06:35:17.442Z,25.52
2023-05-05T06:36:16.504Z,25.46
2023-05-05T06:37:16.726Z,25.44
2023-05-05T06:38:17.435Z,25.44
2023-05-05T06:39:16.547Z,25.40
2023-05-05T06:40:16.614Z,25.38
2023-05-05T06:41:17.678Z,25.38
2023-05-05T06:42:17.313Z,25.42
2023-05-05T06:43:16.940Z,25.41
2023-05-05T06:44:16.742Z,25.42
2023-05-05T06:45:16.755Z,25.46
2023-05-05T06:46:16.859Z,25.53
2023-05-05T06:47:16.874Z,25.58
2023-05-05T06:48:16.832Z,25.57
2023-05-05T06:49:16.992Z,25.61
2023-05-05T06:50:16.796Z,25.61
2023-05-05T06:51:16.803Z,25.62
2023-05-05T06:52:16.791Z,25.64
2023-05-05T06:53:16.857Z,25.62
2023-05-05T06:54:17.092Z,25.65
2023-05-05T06:55:16.777Z,25.62
2023-05-05T06:56:16.758Z,25.55
2023-05-05T06:57:16.798Z,25.57
2023-05-05T06:58:16.768Z,25.53
2023-05-05T06:59:16.768Z,25.46
2023-05-05T07:00:16.736Z,25.45
2023-05-05T07:01:16.792Z,25.41
2023-05-05T07:02:16.710Z,25.34
2023-05-05T07:03:16.873Z,25.34
2023-05-05T07:04:16.746Z,25.31
2023-05-05T07:05:16.741Z,25.25
2023-05-05T07:06:16.710Z,25.27
2023-05-05T07:07:16.710Z,25.28
2023-05-05T07:08:16.707Z,25.30
2023-05-05T07:09:17.558Z,25.31
2023-05-05T07:10:16.824Z,25.32
2023-05-05T07:11:16.867Z,25.38
2023-05-05T07:12:16.968Z,25.40
2023-05-05T07:13:17.127Z,25.45
2023-05-05T07:14:16.995Z,25.46
2023-05-05T07:15:27.327Z,25.46
2023-05-05T07:16:18.157Z,25.57
2023-05-05T07:17:17.011Z,25.59
2023-05-05T07:18:17.035Z,25.61
2023-05-05T07:19:17.317Z,25.62
2023-05-05T07:20:16.979Z,25.64
2023-05-05T07:21:16.984Z,25.62
2023-05-05T07:22:17.066Z,25.64
2023-05-05T07:23:16.931Z,25.65
2023-05-05T07:24:17.146Z,25.68
2023-05-05T07:25:16.967Z,25.69
2023-05-05T07:26:16.912Z,25.70
2023-05-05T07:27:16.955Z,25.72
2023-05-05T07:28:16.922Z,25.73
2023-05-05T07:29:16.892Z,25.72
2023-05-05T07:30:18.655Z,25.73
2023-05-05T07:31:16.863Z,25.76
2023-05-05T07:32:16.961Z,25.78
2023-05-05T07:33:16.844Z,25.80
2023-05-05T07:34:16.865Z,25.82
2023-05-05T07:35:18.315Z,25.85
2023-05-05T07:36:16.867Z,25.90
2023-05-05T07:37:16.839Z,25.92
2023-05-05T07:38:16.851Z,25.95
2023-05-05T07:39:17.312Z,25.96
2023-05-05T07:40:16.790Z,26.01
2023-05-05T07:41:16.908Z,26.01
2023-05-05T07:42:16.794Z,26.03
2023-05-05T07:43:16.973Z,26.03
2023-05-05T07:44:17.860Z,26.07
2023-05-05T07:45:16.827Z,26.04
2023-05-05T07:46:16.871Z,26.07
2023-05-05T07:47:16.770Z,26.08
2023-05-05T07:48:16.798Z,26.08
2023-05-05T07:49:16.782Z,26.08
2023-05-05T07:51:35.955Z,26.07
2023-05-05T07:52:45.193Z,26.08
2023-05-05T07:53:36.949Z,26.12
2023-05-05T07:54:36.030Z,26.13
2023-05-05T07:55:35.966Z,26.12
2023-05-05T07:56:36.190Z,26.10
2023-05-05T07:57:36.028Z,26.14
2023-05-05T07:58:36.058Z,26.14
2023-05-05T07:59:36.065Z,26.17
2023-05-05T08:00:36.040Z,26.14
2023-05-05T08:01:36.102Z,26.12
2023-05-05T08:02:36.131Z,26.13
2023-05-05T08:03:36.276Z,26.17
2023-05-05T08:04:36.221Z,26.16
2023-05-05T08:05:36.132Z,26.16
2023-05-05T08:06:36.144Z,26.14
2023-05-05T08:07:36.141Z,26.12
2023-05-05T08:08:36.221Z,26.14
2023-05-05T08:09:36.645Z,26.17
2023-05-05T08:10:36.352Z,26.14
2023-05-05T08:11:36.419Z,26.14
2023-05-05T08:12:36.927Z,26.12
2023-05-05T08:13:36.585Z,26.10
2023-05-05T08:14:36.687Z,26.08
2023-05-05T08:15:36.723Z,26.12
2023-05-05T08:16:36.855Z,26.10
2023-05-05T08:17:36.926Z,26.07
2023-05-05T08:18:36.943Z,26.07
2023-05-05T08:19:37.075Z,26.08
2023-05-05T08:20:37.042Z,26.07
2023-05-05T08:21:37.091Z,26.04
2023-05-05T08:22:37.373Z,26.04
2023-05-05T08:23:37.073Z,26.01
2023-05-05T08:24:37.101Z,26.01
2023-05-05T08:25:37.164Z,26.06
2023-05-05T08:26:40.217Z,26.07
2023-05-05T08:27:37.123Z,26.08
2023-05-05T08:28:37.215Z,26.10
2023-05-05T08:29:37.175Z,26.12
2023-05-05T08:30:37.147Z,26.14
2023-05-05T08:31:37.225Z,26.14
2023-05-05T08:32:37.212Z,26.20
2023-05-05T08:33:37.196Z,26.24
2023-05-05T08:34:37.194Z,26.27
2023-05-05T08:35:37.198Z,26.30
2023-05-05T08:36:37.233Z,26.35
2023-05-05T08:37:37.368Z,26.38
2023-05-05T08:38:37.278Z,26.44
2023-05-05T08:39:37.306Z,26.47
2023-05-05T08:40:37.331Z,26.48
2023-05-05T08:41:37.271Z,26.52
2023-05-05T08:42:39.187Z,26.55
2023-05-05T08:43:37.380Z,26.56
2023-05-05T08:44:37.551Z,26.61
2023-05-05T08:45:37.450Z,26.65
2023-05-05T08:46:37.500Z,26.67
2023-05-05T08:47:37.579Z,26.70
2023-05-05T08:48:37.693Z,26.72
2023-05-05T08:49:37.639Z,26.72
2023-05-05T08:50:37.626Z,26.74
2023-05-05T08:51:37.683Z,26.78
2023-05-05T08:52:37.774Z,26.77
2023-05-05T08:53:38.738Z,26.79
2023-05-05T08:54:37.725Z,26.81
2023-05-05T08:55:52.782Z,26.82
2023-05-05T08:56:37.738Z,26.82
2023-05-05T08:57:37.739Z,26.83
2023-05-05T08:58:40.715Z,26.85
2023-05-05T08:59:38.828Z,26.85
2023-05-05T09:00:37.848Z,26.86
2023-05-05T09:01:37.879Z,26.85
2023-05-05T09:02:37.924Z,26.85
2023-05-05T09:03:38.688Z,26.86
2023-05-05T09:04:37.777Z,26.86
2023-05-05T09:05:37.887Z,26.85
2023-05-05T09:06:38.736Z,26.88
2023-05-05T09:07:37.788Z,26.86
2023-05-05T09:08:37.840Z,26.89
2023-05-05T09:09:37.790Z,26.90
2023-05-05T09:10:37.799Z,26.92
2023-05-05T09:11:37.895Z,26.93
2023-05-05T09:12:37.839Z,26.95
2023-05-05T09:13:37.794Z,26.96
2023-05-05T09:14:40.704Z,26.99
2023-05-05T09:15:37.808Z,26.98
2023-05-05T09:16:38.160Z,26.96
2023-05-05T09:17:37.886Z,26.95
2023-05-05T09:18:37.842Z,26.93
2023-05-05T09:19:38.149Z,26.93
2023-05-05T09:20:37.903Z,26.93
2023-05-05T09:21:37.850Z,26.93
2023-05-05T09:22:38.663Z,26.93
2023-05-05T09:23:37.884Z,26.93
2023-05-05T09:24:37.933Z,26.92
2023-05-05T09:25:38.008Z,26.92
2023-05-05T09:26:37.965Z,26.90
2023-05-05T09:27:37.879Z,26.88
2023-05-05T09:28:38.010Z,26.90
2023-05-05T09:29:37.922Z,26.89
2023-05-05T09:30:38.018Z,26.89
2023-05-05T09:31:38.717Z,26.88
2023-05-05T09:32:37.991Z,26.88
2023-05-05T09:33:37.934Z,26.90
2023-05-05T09:34:38.123Z,26.90
2023-05-05T09:35:37.964Z,26.90
2023-05-05T09:36:37.943Z,26.92
2023-05-05T09:37:37.968Z,26.90
2023-05-05T09:38:37.951Z,26.93
2023-05-05T09:39:38.150Z,26.95
2023-05-05T09:40:38.432Z,26.95
2023-05-05T09:41:38.146Z,26.95
2023-05-05T09:42:37.994Z,26.96
2023-05-05T09:43:38.044Z,26.99
2023-05-05T09:44:38.195Z,26.99
2023-05-05T09:45:38.079Z,27.00
2023-05-05T09:46:38.119Z,26.95
2023-05-05T09:47:38.154Z,26.98
2023-05-05T09:48:38.114Z,26.98
2023-05-05T09:49:38.092Z,26.96
2023-05-05T09:50:38.098Z,26.99
2023-05-05T09:51:38.076Z,26.99
2023-05-05T09:52:38.148Z,26.99
2023-05-05T09:53:38.204Z,26.98
2023-05-05T09:54:38.131Z,26.98
2023-05-05T09:55:38.141Z,26.96
2023-05-05T09:56:38.137Z,26.96
2023-05-05T09:57:38.188Z,26.96
2023-05-05T09:58:38.204Z,26.96
2023-05-05T09:59:38.142Z,26.92
2023-05-05T10:00:38.149Z,26.89
2023-05-05T10:01:38.413Z,26.89
2023-05-05T10:02:38.293Z,26.86
2023-05-05T10:03:38.178Z,26.86
2023-05-05T10:04:38.580Z,26.83
2023-05-05T10:05:38.227Z,26.85
2023-05-05T10:06:38.258Z,26.86
2023-05-05T10:07:38.274Z,26.85
2023-05-05T10:08:38.238Z,26.88
2023-05-05T10:09:38.264Z,26.86
2023-05-05T10:10:38.231Z,26.89
2023-05-05T10:11:38.250Z,26.90
2023-05-05T10:12:39.148Z,26.89
2023-05-05T10:13:38.485Z,26.90
2023-05-05T10:14:38.654Z,26.93
2023-05-05T10:15:38.302Z,26.98
2023-05-05T10:16:38.345Z,26.96
2023-05-05T10:17:38.393Z,27.02
2023-05-05T10:18:38.398Z,27.00
2023-05-05T10:19:38.291Z,27.02
2023-05-05T10:20:38.306Z,27.06
2023-05-05T10:21:39.762Z,27.00
2023-05-05T10:22:38.525Z,27.03
2023-05-05T10:23:38.562Z,27.03
2023-05-05T10:24:38.606Z,27.03
2023-05-05T10:25:38.639Z,27.03
2023-05-05T10:26:38.562Z,27.05
2023-05-05T10:27:38.643Z,27.03
2023-05-05T10:28:39.221Z,27.05
2023-05-05T10:29:38.653Z,27.07
2023-05-05T10:30:38.737Z,27.06
2023-05-05T10:31:38.731Z,27.06
2023-05-05T10:33:38.923Z,27.07
2023-05-05T10:34:38.796Z,27.11
2023-05-05T10:35:38.695Z,27.13
2023-05-05T10:36:41.823Z,27.11
2023-05-05T10:37:38.689Z,27.10
2023-05-05T10:38:38.819Z,27.11
2023-05-05T10:39:39.186Z,27.09
2023-05-05T10:40:39.056Z,27.10
2023-05-05T10:41:38.726Z,27.07
2023-05-05T10:42:38.748Z,27.07
2023-05-05T10:43:38.722Z,27.09
2023-05-05T10:44:38.946Z,27.10
2023-05-05T10:45:38.797Z,27.09
2023-05-05T10:46:38.780Z,27.10
2023-05-05T10:47:38.754Z,27.11
2023-05-05T10:48:39.769Z,27.10
2023-05-05T10:49:38.754Z,27.13
2023-05-05T10:50:38.712Z,27.13
2023-05-05T10:51:41.004Z,27.13
2023-05-05T10:52:39.048Z,27.16
2023-05-05T10:53:39.031Z,27.16
2023-05-05T10:54:39.667Z,27.13
2023-05-05T10:55:38.894Z,27.13
2023-05-05T10:56:38.887Z,27.11
2023-05-05T10:57:39.008Z,27.10
2023-05-05T10:58:55.508Z,27.13
2023-05-05T10:59:39.966Z,27.10
2023-05-05T11:00:39.717Z,27.11
2023-05-05T11:01:39.702Z,27.14
2023-05-05T11:02:38.969Z,27.13
2023-05-05T11:03:39.038Z,27.13
2023-05-05T11:04:38.907Z,27.13
2023-05-05T11:05:38.961Z,27.14
2023-05-05T11:06:39.737Z,27.17
2023-05-05T11:07:38.945Z,27.16
2023-05-05T11:08:38.938Z,27.17
2023-05-05T11:09:39.023Z,27.22
2023-05-05T11:10:38.991Z,27.23
2023-05-05T11:11:39.717Z,27.26
2023-05-05T11:12:39.057Z,27.23
2023-05-05T11:13:39.117Z,27.29
2023-05-05T11:14:38.962Z,27.30
2023-05-05T11:15:38.892Z,27.32
2023-05-05T11:16:39.856Z,27.32
2023-05-05T11:17:38.933Z,27.33
2023-05-05T11:18:38.947Z,27.33
2023-05-05T11:19:39.054Z,27.34
2023-05-05T11:20:38.945Z,27.34
2023-05-05T11:21:38.875Z,27.36
2023-05-05T11:22:38.831Z,27.34
2023-05-05T11:23:38.872Z,27.34
2023-05-05T11:24:39.242Z,27.34
2023-05-05T11:25:38.851Z,27.38
2023-05-05T11:26:38.851Z,27.40
2023-05-05T11:27:39.674Z,27.38
2023-05-05T11:28:39.155Z,27.38
2023-05-05T11:29:40.036Z,27.40
2023-05-05T11:30:39.141Z,27.38
2023-05-05T11:31:38.871Z,27.36
2023-05-05T11:32:39.052Z,27.37
2023-05-05T11:33:39.901Z,27.36
2023-05-05T11:34:38.855Z,27.38
2023-05-05T11:35:38.789Z,27.36
2023-05-05T11:36:39.023Z,27.37
2023-05-05T11:37:38.757Z,27.38
2023-05-05T11:38:38.793Z,27.38
2023-05-05T11:39:38.865Z,27.38
2023-05-05T11:40:38.843Z,27.38
2023-05-05T11:41:38.768Z,27.36
2023-05-05T11:42:38.781Z,27.37
2023-05-05T11:43:38.739Z,27.36
2023-05-05T11:44:38.745Z,27.36
2023-05-05T11:45:38.774Z,27.34
2023-05-05T11:46:38.817Z,27.33
2023-05-05T11:47:38.755Z,27.33
2023-05-05T11:48:38.736Z,27.36
2023-05-05T11:49:38.765Z,27.36
2023-05-05T11:50:38.807Z,27.34
2023-05-05T11:51:38.814Z,27.37
2023-05-05T11:52:38.752Z,27.38
2023-05-05T11:53:38.740Z,27.41
2023-05-05T11:54:38.817Z,27.37
2023-05-05T11:55:38.800Z,27.38
2023-05-05T11:56:38.811Z,27.41
2023-05-05T11:57:38.763Z,27.41
2023-05-05T11:58:38.807Z,27.43
2023-05-05T11:59:38.743Z,27.44
2023-05-05T12:00:38.808Z,27.44
2023-05-05T12:01:38.760Z,27.46
2023-05-05T12:02:38.939Z,27.47
2023-05-05T12:03:38.875Z,27.43
2023-05-05T12:04:38.809Z,27.44
2023-05-05T12:05:38.774Z,27.43
2023-05-05T12:06:38.827Z,27.41
2023-05-05T12:07:38.805Z,27.43
2023-05-05T12:08:38.938Z,27.40
2023-05-05T12:09:38.941Z,27.41
2023-05-05T12:10:39.035Z,27.40
2023-05-05T12:11:39.130Z,27.41
2023-05-05T12:12:39.210Z,27.40
2023-05-05T12:13:39.356Z,27.43
2023-05-05T12:14:39.226Z,27.44
2023-05-05T12:15:39.309Z,27.43
2023-05-05T12:16:39.447Z,27.44
2023-05-05T12:17:39.468Z,27.41
2023-05-05T12:18:39.405Z,27.44
2023-05-05T12:19:39.442Z,27.43
2023-05-05T12:20:39.465Z,27.43
2023-05-05T12:21:39.408Z,27.44
2023-05-05T12:22:39.486Z,27.44
2023-05-05T12:23:39.392Z,27.47
2023-05-05T12:24:39.418Z,27.47
2023-05-05T12:25:39.410Z,27.47
2023-05-05T12:26:39.510Z,27.46
2023-05-05T12:27:39.396Z,27.46
2023-05-05T12:28:39.517Z,27.41
2023-05-05T12:29:39.483Z,27.41
2023-05-05T12:30:39.652Z,27.43
2023-05-05T12:31:39.677Z,27.43
2023-05-05T12:32:39.576Z,27.38
2023-05-05T12:33:39.709Z,27.40
2023-05-05T12:34:39.652Z,27.40
2023-05-05T12:35:39.790Z,27.41
2023-05-05T12:36:39.742Z,27.40
2023-05-05T12:37:39.774Z,27.41
2023-05-05T12:38:39.794Z,27.34
2023-05-05T12:39:39.798Z,27.37
2023-05-05T12:40:39.867Z,27.37
2023-05-05T12:41:39.863Z,27.37
2023-05-05T12:42:39.861Z,27.36
2023-05-05T12:43:40.768Z,27.36
2023-05-05T12:44:39.873Z,27.34
2023-05-05T12:45:39.979Z,27.34
2023-05-05T12:46:40.050Z,27.36
2023-05-05T12:47:40.092Z,27.37
2023-05-05T12:48:40.089Z,27.38
2023-05-05T12:49:40.116Z,27.38
2023-05-05T12:50:40.171Z,27.37
2023-05-05T12:51:40.221Z,27.40
2023-05-05T12:52:40.269Z,27.40
2023-05-05T12:53:40.336Z,27.41
2023-05-05T12:54:40.432Z,27.43
2023-05-05T12:55:40.529Z,27.43